createdAt,value
2022-08-17T00:00:01.985Z,18.4
2022-08-17T00:01:01.416Z,18.2
2022-08-17T00:02:04.963Z,18.3
2022-08-17T00:03:00.726Z,18.3
2022-08-17T00:04:01.100Z,18.3
2022-08-17T00:05:00.843Z,18.1
2022-08-17T00:06:00.574Z,18.3
2022-08-17T00:07:00.403Z,18.4
2022-08-17T00:08:00.173Z,18.4
2022-08-17T00:08:59.866Z,18.6
2022-08-17T00:10:01.601Z,19.1
2022-08-17T00:11:00.614Z,19.4
2022-08-17T00:12:41.996Z,19.6
2022-08-17T00:13:01.467Z,19.9
2022-08-17T00:14:00.569Z,19.9
2022-08-17T00:15:00.217Z,19.9
2022-08-17T00:16:00.004Z,20
2022-08-17T00:16:59.699Z,20
2022-08-17T00:18:01.504Z,19.8
2022-08-17T00:19:08.467Z,20.1
2022-08-17T00:20:01.257Z,19.9
2022-08-17T00:21:01.015Z,19.8
2022-08-17T00:22:32.534Z,19.9
2022-08-17T00:23:00.780Z,19.6
2022-08-17T00:24:00.670Z,19.8
2022-08-17T00:25:01.378Z,19.7
2022-08-17T00:26:01.468Z,19.9
2022-08-17T00:27:01.193Z,19.8
2022-08-17T00:28:00.892Z,20
2022-08-17T00:29:00.549Z,20.5
2022-08-17T00:30:00.413Z,20.7
2022-08-17T00:31:00.107Z,20.6
2022-08-17T00:31:59.808Z,20.7
2022-08-17T00:33:15.777Z,21
2022-08-17T00:34:01.460Z,21
2022-08-17T00:35:00.639Z,20.8
2022-08-17T00:36:00.346Z,20.9
2022-08-17T00:37:00.329Z,20.7
2022-08-17T00:38:00.072Z,21.1
2022-08-17T00:38:59.860Z,20.8
2022-08-17T00:40:01.619Z,20.6
2022-08-17T00:41:00.680Z,20.7
2022-08-17T00:42:00.610Z,21
2022-08-17T00:43:00.387Z,20.9
2022-08-17T00:44:00.092Z,20.8
2022-08-17T00:44:59.884Z,20.7
2022-08-17T00:45:59.610Z,20.5
2022-08-17T00:47:04.835Z,20.3
2022-08-17T00:48:01.466Z,20.4
2022-08-17T00:49:01.574Z,20.5
2022-08-17T00:50:01.581Z,20.6
2022-08-17T00:51:01.585Z,20.6
2022-08-17T00:52:11.642Z,20.6
2022-08-17T00:53:01.262Z,20.6
2022-08-17T00:54:00.570Z,20.6
2022-08-17T00:55:00.252Z,20.6
2022-08-17T00:55:59.952Z,21
2022-08-17T01:08:01.145Z,22.6
2022-08-17T01:09:01.001Z,22.4
2022-08-17T01:10:00.665Z,22.4
2022-08-17T01:11:01.746Z,22.4
2022-08-17T01:12:01.387Z,22.6
2022-08-17T01:13:00.909Z,22.6
2022-08-17T01:14:00.749Z,22.6
2022-08-17T01:15:00.525Z,22.9
2022-08-17T01:16:00.326Z,23
2022-08-17T01:17:00.117Z,23.4
2022-08-17T01:17:59.873Z,23.4
2022-08-17T01:18:59.619Z,23.9
2022-08-17T01:20:01.385Z,23.8
2022-08-17T01:21:01.450Z,24
2022-08-17T01:22:00.683Z,24
2022-08-17T01:23:00.422Z,23.9
2022-08-17T01:24:00.155Z,23.6
2022-08-17T01:24:59.989Z,23.7
2022-08-17T01:25:59.625Z,23
2022-08-17T01:27:01.310Z,23.1
2022-08-17T01:28:01.329Z,23.1
2022-08-17T01:29:01.110Z,23.1
2022-08-17T01:30:00.687Z,22.6
2022-08-17T01:31:01.722Z,22.6
2022-08-17T01:32:01.563Z,23
2022-08-17T01:33:01.251Z,22.6
2022-08-17T01:34:01.864Z,23.1
2022-08-17T01:35:00.948Z,23.1
2022-08-17T01:36:00.626Z,23.4
2022-08-17T01:37:00.267Z,23.5
2022-08-17T01:38:00.097Z,23.6
2022-08-17T01:38:59.775Z,23.4
2022-08-17T01:40:01.488Z,23.7
2022-08-17T01:41:01.193Z,23.6
2022-08-17T01:42:00.850Z,23.6
2022-08-17T01:43:00.493Z,23.9
2022-08-17T01:44:00.159Z,23.9
2022-08-17T01:44:59.828Z,23.9
2022-08-17T01:46:03.154Z,23.6
2022-08-17T01:47:00.969Z,23.5
2022-08-17T01:48:00.656Z,23.6
2022-08-17T01:49:00.400Z,23.8
2022-08-17T01:50:00.071Z,24.2
2022-08-17T01:50:59.777Z,24.3
2022-08-17T01:52:01.517Z,24.5
2022-08-17T01:53:01.203Z,24.8
2022-08-17T01:54:00.863Z,25.3
2022-08-17T01:55:00.502Z,25.5
2022-08-17T01:56:00.166Z,25.7
2022-08-17T01:56:59.880Z,25.6
2022-08-17T01:57:59.523Z,26.2
2022-08-17T01:59:00.651Z,25.8
2022-08-17T02:00:00.355Z,25.7
2022-08-17T02:01:01.479Z,25.7
2022-08-17T02:02:01.238Z,25.4
2022-08-17T02:03:01.138Z,25.6
2022-08-17T02:04:01.923Z,25.4
2022-08-17T02:05:00.811Z,25.4
2022-08-17T02:06:00.466Z,25.1
2022-08-17T02:07:00.217Z,25
2022-08-17T02:08:00.945Z,25.2
2022-08-17T02:09:03.419Z,24.9
2022-08-17T02:10:00.904Z,24.7
2022-08-17T02:11:00.573Z,24.9
2022-08-17T02:12:37.405Z,25.1
2022-08-17T02:13:00.803Z,24.8
2022-08-17T02:14:03.293Z,24.9
2022-08-17T02:15:01.510Z,24.6
2022-08-17T02:16:00.668Z,24.7
2022-08-17T02:17:00.842Z,24.8
2022-08-17T02:18:04.000Z,24.4
2022-08-17T02:19:00.578Z,24.7
2022-08-17T02:20:01.119Z,24.4
2022-08-17T02:21:00.931Z,24.6
2022-08-17T02:22:00.869Z,24.9
2022-08-17T02:23:07.357Z,25.1
2022-08-17T02:24:00.492Z,25.3
2022-08-17T02:25:02.343Z,25.6
2022-08-17T02:26:01.497Z,26.2
2022-08-17T02:27:01.097Z,26.6
2022-08-17T02:28:07.914Z,26.8
2022-08-17T02:29:01.293Z,27.3
2022-08-17T02:30:00.973Z,27.2
2022-08-17T02:31:03.222Z,27.3
2022-08-17T02:32:01.082Z,27.2
2022-08-17T02:33:09.499Z,27.1
2022-08-17T02:34:04.417Z,27.3
2022-08-17T02:35:01.192Z,27.2
2022-08-17T02:36:00.946Z,27.3
2022-08-17T02:37:01.905Z,27.3
2022-08-17T02:38:12.863Z,26.7
2022-08-17T02:39:00.776Z,26.8
2022-08-17T02:40:00.565Z,27.1
2022-08-17T02:41:00.295Z,26.4
2022-08-17T02:42:00.266Z,26.8
2022-08-17T02:43:15.511Z,26.8
2022-08-17T02:44:00.986Z,26.6
2022-08-17T02:45:00.693Z,26.6
2022-08-17T02:46:00.356Z,26.5
2022-08-17T02:47:00.161Z,26.8
2022-08-17T02:47:59.833Z,27.1
2022-08-17T02:49:01.557Z,27.3
2022-08-17T02:50:00.713Z,27.3
2022-08-17T02:51:00.413Z,27.4
2022-08-17T02:52:00.073Z,27.5
2022-08-17T02:53:01.769Z,27.4
2022-08-17T02:54:41.538Z,27.9
2022-08-17T02:55:01.560Z,28.1
2022-08-17T02:56:00.916Z,28.4
2022-08-17T02:57:01.393Z,28.3
2022-08-17T02:58:00.829Z,28.3
2022-08-17T02:59:00.487Z,28.3
2022-08-17T03:00:00.171Z,28.5
2022-08-17T03:00:59.871Z,28.3
2022-08-17T03:02:00.239Z,28.5
2022-08-17T03:02:59.965Z,28.7
2022-08-17T03:03:59.614Z,28.7
2022-08-17T03:05:01.293Z,29
2022-08-17T03:06:00.636Z,29.1
2022-08-17T03:07:00.339Z,29.5
2022-08-17T03:08:00.170Z,29.6
2022-08-17T03:08:59.823Z,29.8
2022-08-17T03:10:01.549Z,30.2
2022-08-17T03:11:00.581Z,30.3
2022-08-17T03:12:00.271Z,30.4
2022-08-17T03:12:59.980Z,30.6
2022-08-17T03:13:59.630Z,30.4
2022-08-17T03:15:01.276Z,30.3
2022-08-17T03:16:00.969Z,30.6
2022-08-17T03:17:00.627Z,30.3
2022-08-17T03:18:00.314Z,30.1
2022-08-17T03:18:59.964Z,30.1
2022-08-17T03:19:59.665Z,29.5
2022-08-17T03:21:01.331Z,29.8
2022-08-17T03:22:00.670Z,29.8
2022-08-17T03:23:01.779Z,29.6
2022-08-17T03:24:01.019Z,29.5
2022-08-17T03:25:00.726Z,29.5
2022-08-17T03:26:00.548Z,29.8
2022-08-17T03:27:00.479Z,29.2
2022-08-17T03:28:00.120Z,29.1
2022-08-17T03:28:59.776Z,29.2
2022-08-17T03:30:01.455Z,29
2022-08-17T03:31:01.559Z,29.1
2022-08-17T03:32:00.777Z,29
2022-08-17T03:33:00.428Z,29.2
2022-08-17T03:34:00.079Z,29.6
2022-08-17T03:34:59.735Z,29.4
2022-08-17T03:36:01.422Z,29.6
2022-08-17T03:37:01.125Z,29.6
2022-08-17T03:38:01.364Z,29.7
2022-08-17T03:39:00.807Z,29.8
2022-08-17T03:40:00.625Z,29.9
2022-08-17T03:41:00.361Z,30
2022-08-17T03:42:00.797Z,29.9
2022-08-17T03:43:00.463Z,30.3
2022-08-17T03:44:00.164Z,30.3
2022-08-17T03:44:59.843Z,30.2
2022-08-17T03:46:01.546Z,30.2
2022-08-17T03:47:01.230Z,30.1
2022-08-17T03:48:00.880Z,30.1
2022-08-17T03:49:00.542Z,30.1
2022-08-17T03:50:00.194Z,29.8
2022-08-17T03:50:59.892Z,30
2022-08-17T03:51:59.542Z,29.7
2022-08-17T03:53:01.241Z,29.5
2022-08-17T03:54:00.905Z,29.5
2022-08-17T03:55:00.554Z,29.3
2022-08-17T03:56:00.440Z,29.5
2022-08-17T03:57:00.119Z,29.6
2022-08-17T03:57:59.774Z,29.4
2022-08-17T03:59:01.427Z,29.6
2022-08-17T04:00:01.553Z,29.8
2022-08-17T04:01:00.991Z,29.9
2022-08-17T04:02:00.719Z,29.6
2022-08-17T04:03:01.243Z,29.5
2022-08-17T04:04:01.283Z,29.7
2022-08-17T04:05:01.006Z,29.6
2022-08-17T04:06:00.650Z,29.8
2022-08-17T04:07:00.273Z,29.8
2022-08-17T04:08:00.128Z,29.9
2022-08-17T04:09:00.695Z,29.8
2022-08-17T04:10:00.345Z,30
2022-08-17T04:11:00.019Z,30
2022-08-17T04:12:01.191Z,30.1
2022-08-17T04:13:03.642Z,30.4
2022-08-17T04:14:03.723Z,30.3
2022-08-17T04:15:02.442Z,30.5
2022-08-17T04:16:01.620Z,30.6
2022-08-17T04:17:01.024Z,30.6
2022-08-17T04:18:00.792Z,30.7
2022-08-17T04:19:05.633Z,30.6
2022-08-17T04:20:01.504Z,30.7
2022-08-17T04:21:01.169Z,30.5
2022-08-17T04:22:00.650Z,30.4
2022-08-17T04:23:00.515Z,30.4
2022-08-17T04:24:06.613Z,30.2
2022-08-17T04:25:01.200Z,29.9
2022-08-17T04:26:00.898Z,30.2
2022-08-17T04:27:00.568Z,30.3
2022-08-17T04:28:00.227Z,30.8
2022-08-17T04:29:10.696Z,31.1
2022-08-17T04:30:01.381Z,31.4
2022-08-17T04:31:01.395Z,31.9
2022-08-17T04:32:00.596Z,31.9
2022-08-17T04:33:04.668Z,32
2022-08-17T04:34:13.667Z,32.1
2022-08-17T04:35:01.253Z,32.4
2022-08-17T04:36:00.918Z,32.4
2022-08-17T04:37:00.603Z,32.1
2022-08-17T04:38:00.236Z,32.1
2022-08-17T04:38:59.891Z,32
2022-08-17T04:40:03.690Z,32
2022-08-17T04:41:00.682Z,31.7
2022-08-17T04:42:00.343Z,31.6
2022-08-17T04:43:01.103Z,31.4
2022-08-17T04:44:01.065Z,31.2
2022-08-17T04:45:00.748Z,30.8
2022-08-17T04:46:00.431Z,30.4
2022-08-17T04:47:00.095Z,30.2
2022-08-17T04:47:59.728Z,30.4
2022-08-17T04:49:01.408Z,29.8
2022-08-17T04:50:00.691Z,30
2022-08-17T04:51:00.406Z,29.8
2022-08-17T04:52:04.326Z,30
2022-08-17T04:53:01.510Z,29.8
2022-08-17T04:54:01.305Z,29.6
2022-08-17T04:55:00.958Z,29.9
2022-08-17T04:56:01.075Z,29.8
2022-08-17T04:57:01.664Z,29.8
2022-08-17T04:58:01.011Z,29.7
2022-08-17T04:59:00.745Z,29.8
2022-08-17T05:00:00.549Z,30.1
2022-08-17T05:01:00.529Z,29.7
2022-08-17T05:02:00.312Z,29.7
2022-08-17T05:02:59.973Z,29.5
2022-08-17T05:03:59.666Z,29.4
2022-08-17T05:05:00.699Z,28.7
2022-08-17T05:06:00.428Z,28.4
2022-08-17T05:07:00.069Z,28.1
2022-08-17T05:08:00.045Z,27.6
2022-08-17T05:08:59.722Z,27.5
2022-08-17T05:10:01.402Z,27
2022-08-17T05:11:01.067Z,26.6
2022-08-17T05:12:00.846Z,25.9
2022-08-17T05:13:00.603Z,25.4
2022-08-17T05:14:00.263Z,25.4
2022-08-17T05:14:59.892Z,24.8
2022-08-17T05:15:59.635Z,24.2
2022-08-17T05:17:01.306Z,23.9
2022-08-17T05:18:00.552Z,23.2
2022-08-17T05:19:00.819Z,22.6
2022-08-17T05:20:00.465Z,22.4
2022-08-17T05:21:00.197Z,21.8
2022-08-17T05:22:00.035Z,21.8
2022-08-17T05:22:59.702Z,20.7
2022-08-17T05:24:01.375Z,20.5
2022-08-17T05:25:01.894Z,20.4
2022-08-17T05:26:00.621Z,20.1
2022-08-17T05:27:06.301Z,19.7
2022-08-17T05:28:02.077Z,19.5
2022-08-17T05:29:02.766Z,19
2022-08-17T05:30:00.741Z,18.7
2022-08-17T05:31:00.493Z,18.2
2022-08-17T05:32:00.189Z,18.2
2022-08-17T05:32:59.847Z,18.1
2022-08-17T05:34:01.546Z,17.9
2022-08-17T05:35:01.290Z,17.3
2022-08-17T05:36:00.946Z,17.3
2022-08-17T05:37:00.647Z,17
2022-08-17T05:38:00.462Z,16.3
2022-08-17T05:39:00.146Z,15.9
2022-08-17T05:40:00.385Z,16.1
2022-08-17T05:41:00.212Z,15.4
2022-08-17T05:42:00.112Z,15.6
2022-08-17T05:42:59.765Z,15.3
2022-08-17T05:44:05.183Z,15.3
2022-08-17T05:45:01.583Z,15.2
2022-08-17T05:46:00.704Z,14.1
2022-08-17T05:47:00.513Z,13.6
2022-08-17T05:48:00.419Z,13.5
2022-08-17T05:49:01.400Z,13.7
2022-08-17T05:50:02.813Z,13.3
2022-08-17T05:51:01.080Z,12.9
2022-08-17T05:52:01.481Z,13.2
2022-08-17T05:53:01.079Z,12.9
2022-08-17T05:54:00.713Z,12.5
2022-08-17T05:55:05.283Z,11.8
2022-08-17T05:56:01.374Z,11
2022-08-17T05:57:00.626Z,11
2022-08-17T05:58:00.287Z,10.9
2022-08-17T05:58:59.940Z,11.1
2022-08-17T06:00:10.022Z,11.1
2022-08-17T06:01:00.774Z,11
2022-08-17T06:02:00.613Z,10.9
2022-08-17T06:03:00.262Z,10.9
2022-08-17T06:03:59.923Z,10.9
2022-08-17T06:05:09.607Z,11.2
2022-08-17T06:06:00.941Z,10.9
2022-08-17T06:07:00.594Z,11.2
2022-08-17T06:08:00.374Z,11.1
2022-08-17T06:09:00.006Z,10.8
2022-08-17T06:10:14.245Z,10.8
2022-08-17T06:11:00.717Z,10.3
2022-08-17T06:12:01.032Z,10.8
2022-08-17T06:13:01.073Z,10.3
2022-08-17T06:14:00.808Z,10.4
2022-08-17T06:15:16.041Z,10.4
2022-08-17T06:16:01.212Z,10.5
2022-08-17T06:17:00.810Z,10.3
2022-08-17T06:18:00.463Z,10.4
2022-08-17T06:19:00.143Z,11.1
2022-08-17T06:19:59.824Z,11.6
2022-08-17T06:21:01.538Z,12.3
2022-08-17T06:22:01.054Z,13.3
2022-08-17T06:23:00.895Z,13.6
2022-08-17T06:24:00.616Z,14.2
2022-08-17T06:25:00.330Z,15
2022-08-17T06:25:59.965Z,15.4
2022-08-17T06:26:59.585Z,16.1
2022-08-17T06:28:01.274Z,16.8
2022-08-17T06:29:00.937Z,17.6
2022-08-17T06:30:00.692Z,17.9
2022-08-17T06:31:01.358Z,18.5
2022-08-17T06:32:01.165Z,18.3
2022-08-17T06:33:00.831Z,19
2022-08-17T06:34:00.459Z,18.8
2022-08-17T06:35:00.121Z,17.9
2022-08-17T06:35:59.819Z,17.7
2022-08-17T06:37:00.032Z,17.7
2022-08-17T06:37:59.878Z,18
2022-08-17T06:38:59.518Z,17.5
2022-08-17T06:40:01.357Z,17.6
2022-08-17T06:41:01.159Z,17.4
2022-08-17T06:42:00.832Z,17.9
2022-08-17T06:43:05.994Z,18.7
2022-08-17T06:44:01.499Z,18.7
2022-08-17T06:45:00.706Z,18.5
2022-08-17T06:46:00.556Z,17.4
2022-08-17T06:47:00.544Z,17.4
2022-08-17T06:48:00.561Z,17.2
2022-08-17T06:49:00.208Z,17.1
2022-08-17T06:49:59.876Z,17.6
2022-08-17T06:50:59.548Z,17.4
2022-08-17T06:52:01.484Z,17.5
2022-08-17T06:53:01.472Z,17.4
2022-08-17T06:54:01.162Z,17.9
2022-08-17T06:55:00.874Z,17.5
2022-08-17T06:56:00.521Z,15.9
2022-08-17T06:57:00.159Z,16
2022-08-17T06:57:59.813Z,15.6
2022-08-17T06:59:01.491Z,14.7
2022-08-17T07:00:01.167Z,14.8
2022-08-17T07:01:01.168Z,14.6
2022-08-17T07:02:00.842Z,14.6
2022-08-17T07:03:00.467Z,15.3
2022-08-17T07:04:00.129Z,15
2022-08-17T07:05:01.244Z,14.5
2022-08-17T07:06:00.983Z,14.4
2022-08-17T07:07:00.542Z,14.6
2022-08-17T07:08:00.184Z,14.5
2022-08-17T07:09:00.085Z,14.7
2022-08-17T07:09:59.895Z,15.3
2022-08-17T07:10:59.670Z,14.9
2022-08-17T07:12:01.326Z,15.3
2022-08-17T07:13:01.039Z,15
2022-08-17T07:14:00.780Z,14.9
2022-08-17T07:15:00.775Z,14.9
2022-08-17T07:16:00.450Z,15.1
2022-08-17T07:17:00.231Z,14.7
2022-08-17T07:18:00.181Z,15.4
2022-08-17T07:19:00.255Z,15.4
2022-08-17T07:19:59.928Z,15.5
2022-08-17T07:20:59.629Z,15.8
2022-08-17T07:22:01.341Z,15.5
2022-08-17T07:23:01.004Z,15.2
2022-08-17T07:24:00.819Z,15.2
2022-08-17T07:25:01.020Z,14.5
2022-08-17T07:26:00.651Z,15.4
2022-08-17T07:27:00.325Z,15.2
2022-08-17T07:27:59.964Z,14.2
2022-08-17T07:28:59.670Z,13.8
2022-08-17T07:30:01.363Z,13.8
2022-08-17T07:31:01.431Z,13.8
2022-08-17T07:32:01.128Z,15.3
2022-08-17T07:33:00.789Z,14.7
2022-08-17T07:34:00.442Z,14.1
2022-08-17T07:35:00.137Z,14
2022-08-17T07:36:03.776Z,14.7
2022-08-17T07:37:00.589Z,15
2022-08-17T07:38:00.252Z,15.6
2022-08-17T07:38:59.895Z,13.8
2022-08-17T07:40:16.217Z,13.4
2022-08-17T07:41:07.165Z,13
2022-08-17T07:42:01.086Z,12.5
2022-08-17T07:43:00.792Z,12.9
2022-08-17T07:44:00.504Z,13.3
2022-08-17T07:45:00.469Z,13.9
2022-08-17T07:46:09.339Z,13.1
2022-08-17T07:47:00.836Z,12.8
2022-08-17T07:48:00.539Z,12.8
2022-08-17T07:49:00.195Z,12.5
2022-08-17T07:49:59.868Z,12.3
2022-08-17T07:51:12.850Z,13.4
2022-08-17T07:52:48.025Z,12.6
2022-08-17T07:53:01.560Z,12.4
2022-08-17T07:54:13.985Z,12.6
2022-08-17T07:55:02.023Z,12.8
2022-08-17T07:56:15.109Z,12.7
2022-08-17T07:57:01.509Z,12.1
2022-08-17T07:58:01.214Z,12
2022-08-17T07:59:00.867Z,12.4
2022-08-17T08:00:01.501Z,12.2
2022-08-17T08:01:00.765Z,12.4
2022-08-17T08:02:00.998Z,13.5
2022-08-17T08:03:00.966Z,12.6
2022-08-17T08:04:01.135Z,12.5
2022-08-17T08:05:02.146Z,12.3
2022-08-17T08:06:01.397Z,12.6
2022-08-17T08:07:01.440Z,11.9
2022-08-17T08:08:01.243Z,11.1
2022-08-17T08:09:01.032Z,11.3
2022-08-17T08:10:00.683Z,11.5
2022-08-17T08:11:00.370Z,10.2
2022-08-17T08:12:00.045Z,10.2
2022-08-17T08:12:59.785Z,10
2022-08-17T08:14:00.620Z,9.8
2022-08-17T08:15:01.542Z,10.3
2022-08-17T08:16:01.248Z,10.9
2022-08-17T08:17:00.945Z,10.5
2022-08-17T08:18:00.910Z,10.3
2022-08-17T08:19:00.941Z,10
2022-08-17T08:20:00.618Z,10.1
2022-08-17T08:21:00.649Z,9.7
2022-08-17T08:22:00.282Z,10
2022-08-17T08:23:00.201Z,9
2022-08-17T08:23:59.851Z,8.8
2022-08-17T08:25:02.887Z,8.6
2022-08-17T08:26:01.154Z,7.8
2022-08-17T08:27:00.796Z,7.9
2022-08-17T08:28:00.597Z,8.4
2022-08-17T08:29:00.624Z,7.9
2022-08-17T08:30:00.254Z,7.5
2022-08-17T08:30:59.967Z,7.4
2022-08-17T08:31:59.618Z,7.8
2022-08-17T08:33:01.265Z,8.3
2022-08-17T08:34:00.956Z,8
2022-08-17T08:35:02.899Z,7.6
2022-08-17T08:36:00.645Z,7.9
2022-08-17T08:37:17.635Z,7.4
2022-08-17T08:38:02.043Z,7.1
2022-08-17T08:39:01.479Z,7.4
2022-08-17T08:40:00.777Z,7.5
2022-08-17T08:41:00.647Z,7.3
2022-08-17T08:42:00.305Z,7.7
2022-08-17T08:42:59.998Z,7.1
2022-08-17T08:43:59.687Z,7.3
2022-08-17T08:45:04.547Z,7.1
2022-08-17T08:46:01.399Z,7
2022-08-17T08:47:00.542Z,7.7
2022-08-17T08:48:05.706Z,7.3
2022-08-17T08:49:06.528Z,6.7
2022-08-17T08:50:04.863Z,6.7
2022-08-17T08:51:01.142Z,5.9
2022-08-17T08:52:00.828Z,5.3
2022-08-17T08:53:00.471Z,6.1
2022-08-17T08:54:00.161Z,5.9
2022-08-17T08:54:59.806Z,5.6
2022-08-17T08:56:01.591Z,5.4
2022-08-17T08:57:23.327Z,5.7
2022-08-17T08:58:01.264Z,5.2
2022-08-17T08:59:00.728Z,4.9
2022-08-17T09:00:00.431Z,5.3
2022-08-17T09:01:00.578Z,5.2
2022-08-17T09:02:00.308Z,5
2022-08-17T09:02:59.971Z,5.6
2022-08-17T09:04:18.194Z,5.5
2022-08-17T09:05:16.199Z,5.3
2022-08-17T09:06:01.272Z,5.6
2022-08-17T09:07:00.685Z,5.7
2022-08-17T09:08:00.331Z,5.8
2022-08-17T09:08:59.964Z,5.1
2022-08-17T09:09:59.817Z,4.7
2022-08-17T09:11:01.493Z,5.2
2022-08-17T09:12:02.603Z,5.2
2022-08-17T09:13:09.372Z,5.3
2022-08-17T09:14:00.694Z,5.3
2022-08-17T09:15:00.709Z,4.7
2022-08-17T09:16:00.395Z,4.4
2022-08-17T09:17:00.042Z,4.6
2022-08-17T09:18:58.922Z,4.3
2022-08-17T09:19:04.459Z,3.6
2022-08-17T09:20:01.423Z,3.1
2022-08-17T09:21:00.718Z,3.8
2022-08-17T09:22:00.335Z,2.7
2022-08-17T09:22:59.955Z,2.8
2022-08-17T09:23:59.880Z,3
2022-08-17T09:24:59.623Z,2.4
2022-08-17T09:26:01.285Z,2.8
2022-08-17T09:27:01.273Z,2.8
2022-08-17T09:28:01.010Z,1.9
2022-08-17T09:29:00.656Z,1.2
2022-08-17T09:30:00.353Z,1.6
2022-08-17T09:31:00.192Z,1.8
2022-08-17T09:32:02.455Z,2.2
2022-08-17T09:33:00.851Z,1.9
2022-08-17T09:34:01.495Z,2.2
2022-08-17T09:35:00.625Z,1.8
2022-08-17T09:36:00.277Z,2
2022-08-17T09:37:05.234Z,2.7
2022-08-17T09:38:01.227Z,1.6
2022-08-17T09:39:00.875Z,1.3
2022-08-17T09:40:00.625Z,1.1
2022-08-17T09:41:00.689Z,1.7
2022-08-17T09:42:06.763Z,1.6
2022-08-17T09:43:01.361Z,1.5
2022-08-17T09:44:01.010Z,1.4
2022-08-17T09:45:00.775Z,1
2022-08-17T09:46:00.852Z,1
2022-08-17T09:47:07.777Z,1
2022-08-17T09:48:01.458Z,1
2022-08-17T09:49:01.101Z,2
2022-08-17T09:50:00.798Z,1.7
2022-08-17T09:51:04.605Z,1.5
2022-08-17T09:52:11.359Z,1.3
2022-08-17T09:53:00.849Z,1.1
2022-08-17T09:54:20.962Z,1.5
2022-08-17T09:55:01.518Z,1
2022-08-17T09:56:00.809Z,1
2022-08-17T09:57:29.179Z,1
2022-08-17T09:58:01.309Z,1.1
2022-08-17T09:59:00.824Z,1.5
2022-08-17T10:00:00.963Z,1
2022-08-17T10:01:01.060Z,1.6
2022-08-17T10:02:13.907Z,1.3
2022-08-17T10:03:00.706Z,1.3
2022-08-17T10:04:00.565Z,1
2022-08-17T10:05:00.568Z,1
2022-08-17T10:06:00.242Z,1.3
2022-08-17T10:07:00.024Z,1
2022-08-17T10:07:59.688Z,1
2022-08-17T10:09:01.372Z,1
2022-08-17T10:10:01.040Z,1
2022-08-17T10:11:01.775Z,1
2022-08-17T10:12:01.040Z,1
2022-08-17T10:13:00.917Z,1
2022-08-17T10:14:00.733Z,1
2022-08-17T10:15:08.070Z,1
2022-08-17T10:16:01.070Z,1
2022-08-17T10:17:00.735Z,1
2022-08-17T10:18:01.720Z,1
2022-08-17T10:19:01.741Z,1
2022-08-17T10:20:01.389Z,1
2022-08-17T10:21:01.153Z,1
2022-08-17T10:22:14.386Z,1
2022-08-17T10:23:00.827Z,1
2022-08-17T10:24:00.459Z,1
2022-08-17T10:25:21.175Z,1
2022-08-17T10:26:01.219Z,1
2022-08-17T10:27:01.584Z,1
2022-08-17T10:28:00.912Z,1
2022-08-17T10:29:01.277Z,1
2022-08-17T10:30:01.425Z,1
2022-08-17T10:31:31.023Z,1
2022-08-17T10:32:01.357Z,1
2022-08-17T10:33:01.037Z,1
2022-08-17T10:34:00.668Z,1
2022-08-17T10:35:00.300Z,1
2022-08-17T10:35:59.988Z,1
2022-08-17T10:36:59.639Z,1
2022-08-17T10:38:01.306Z,1
2022-08-17T10:39:00.984Z,1
2022-08-17T10:40:00.779Z,1
2022-08-17T10:41:00.718Z,1
2022-08-17T10:42:00.351Z,1
2022-08-17T10:42:59.985Z,1
2022-08-17T10:44:38.121Z,1
2022-08-17T10:45:00.899Z,1
2022-08-17T10:46:27.658Z,1
2022-08-17T10:47:01.584Z,1
2022-08-17T10:48:05.867Z,1
2022-08-17T10:49:01.254Z,1
2022-08-17T10:50:00.763Z,1
2022-08-17T10:51:00.527Z,1
2022-08-17T10:52:00.192Z,1
2022-08-17T10:52:59.853Z,1
2022-08-17T10:54:01.513Z,1
2022-08-17T10:55:01.209Z,1
2022-08-17T10:56:00.868Z,1
2022-08-17T10:57:00.548Z,1
2022-08-17T10:58:00.182Z,1
2022-08-17T10:59:00.025Z,1
2022-08-17T11:00:00.037Z,1
2022-08-17T11:01:01.057Z,1
2022-08-17T11:02:00.773Z,1
2022-08-17T11:03:00.631Z,1
2022-08-17T11:04:00.295Z,1
2022-08-17T11:04:59.991Z,1
2022-08-17T11:05:59.886Z,1
2022-08-17T11:06:59.664Z,1
2022-08-17T11:08:02.020Z,1
2022-08-17T11:09:01.319Z,1
2022-08-17T11:10:01.085Z,1
2022-08-17T11:11:00.753Z,1
2022-08-17T11:12:01.089Z,1
2022-08-17T11:13:00.764Z,1
2022-08-17T11:14:00.520Z,1
2022-08-17T11:15:00.180Z,1
2022-08-17T11:16:02.446Z,1
2022-08-17T11:17:01.213Z,1
2022-08-17T11:18:00.874Z,1
2022-08-17T11:19:00.515Z,1
2022-08-17T11:20:00.174Z,1
2022-08-17T11:20:59.848Z,1
2022-08-17T11:22:01.523Z,1
2022-08-17T11:23:00.697Z,1
2022-08-17T11:24:00.338Z,1
2022-08-17T11:25:00.120Z,1
2022-08-17T11:26:00.124Z,1
2022-08-17T11:27:00.155Z,1
2022-08-17T11:28:00.832Z,1
2022-08-17T11:29:00.623Z,1
2022-08-17T11:30:02.465Z,1
2022-08-17T11:31:01.381Z,1
2022-08-17T11:32:00.889Z,1
2022-08-17T11:33:00.850Z,1
2022-08-17T11:34:01.043Z,1
2022-08-17T11:35:00.711Z,1
2022-08-17T11:36:00.366Z,1
2022-08-17T11:37:00.066Z,1
2022-08-17T11:37:59.918Z,1
2022-08-17T11:38:59.761Z,1
2022-08-17T11:40:01.457Z,1
2022-08-17T11:41:01.253Z,1
2022-08-17T11:41:59.767Z,1
2022-08-17T11:43:02.938Z,1
2022-08-17T11:44:01.977Z,1
2022-08-17T11:45:00.580Z,1
2022-08-17T11:46:00.372Z,1
2022-08-17T11:47:00.132Z,1
2022-08-17T11:48:26.750Z,1
2022-08-17T11:49:00.811Z,1
2022-08-17T11:50:01.011Z,1
2022-08-17T11:51:01.012Z,1
2022-08-17T11:52:00.993Z,1
2022-08-17T11:53:07.572Z,1
2022-08-17T11:54:30.508Z,1
2022-08-17T11:55:24.124Z,1
2022-08-17T11:56:01.140Z,1
2022-08-17T11:57:00.854Z,1
2022-08-17T11:58:08.414Z,1
2022-08-17T11:59:01.639Z,1
2022-08-17T12:00:01.066Z,1
2022-08-17T12:01:00.901Z,1
2022-08-17T12:02:00.601Z,1
2022-08-17T12:03:11.621Z,1
2022-08-17T12:04:01.320Z,1
2022-08-17T12:05:01.023Z,1
2022-08-17T12:06:00.172Z,1
2022-08-17T12:06:59.842Z,1
2022-08-17T12:08:15.011Z,1
2022-08-17T12:09:01.484Z,1
2022-08-17T12:10:01.173Z,1
2022-08-17T12:11:01.400Z,1
2022-08-17T12:12:12.037Z,1
2022-08-17T12:13:01.115Z,1
2022-08-17T12:14:00.789Z,1
2022-08-17T12:15:16.436Z,1
2022-08-17T12:16:01.451Z,1
2022-08-17T12:17:01.088Z,1
2022-08-17T12:18:00.790Z,1
2022-08-17T12:19:00.479Z,1
2022-08-17T12:20:00.314Z,1
2022-08-17T12:21:01.155Z,1
2022-08-17T12:22:00.686Z,1
2022-08-17T12:23:00.577Z,1
2022-08-17T12:24:00.257Z,1
2022-08-17T12:24:59.892Z,1
2022-08-17T12:25:59.542Z,1
2022-08-17T12:27:01.218Z,1
2022-08-17T12:28:06.706Z,1
2022-08-17T12:29:01.605Z,1
2022-08-17T12:30:00.887Z,1
2022-08-17T12:31:01.968Z,1
2022-08-17T12:32:01.277Z,1
2022-08-17T12:33:00.995Z,1
2022-08-17T12:34:00.613Z,1
2022-08-17T12:35:00.252Z,1
2022-08-17T12:35:59.919Z,1
2022-08-17T12:36:59.599Z,1
2022-08-17T12:38:01.417Z,1
2022-08-17T12:39:14.513Z,1
2022-08-17T12:40:01.104Z,1
2022-08-17T12:41:00.603Z,1
2022-08-17T12:42:02.660Z,1
2022-08-17T12:43:02.310Z,1
2022-08-17T12:44:00.711Z,1
2022-08-17T12:45:00.393Z,1
2022-08-17T12:46:00.359Z,1
2022-08-17T12:47:00.353Z,1
2022-08-17T12:48:00.042Z,1
2022-08-17T12:49:00.255Z,1
2022-08-17T12:50:00.170Z,1
2022-08-17T12:51:00.655Z,1
2022-08-17T12:52:00.325Z,1
2022-08-17T12:53:02.483Z,1
2022-08-17T12:54:00.835Z,1
2022-08-17T12:55:00.507Z,1
2022-08-17T12:56:00.209Z,1
2022-08-17T12:56:59.890Z,1
2022-08-17T12:57:59.606Z,1
2022-08-17T12:59:00.551Z,1
2022-08-17T13:00:00.609Z,1
2022-08-17T13:01:00.384Z,1
2022-08-17T13:02:00.193Z,1
2022-08-17T13:02:59.913Z,1
2022-08-17T13:03:59.856Z,1
2022-08-17T13:04:59.582Z,1
2022-08-17T13:06:01.256Z,1
2022-08-17T13:07:00.774Z,1
2022-08-17T13:08:00.426Z,1
2022-08-17T13:09:00.092Z,1
2022-08-17T13:09:59.867Z,1
2022-08-17T13:10:59.586Z,1
2022-08-17T13:12:01.261Z,1
2022-08-17T13:13:01.238Z,1
2022-08-17T13:14:00.691Z,1
2022-08-17T13:15:00.335Z,1
2022-08-17T13:16:00.014Z,1
2022-08-17T13:16:59.705Z,1
2022-08-17T13:18:01.378Z,1
2022-08-17T13:19:01.030Z,1
2022-08-17T13:20:00.701Z,1
2022-08-17T13:21:00.352Z,1
2022-08-17T13:21:59.995Z,1
2022-08-17T13:22:59.647Z,1
2022-08-17T13:24:01.452Z,1
2022-08-17T13:25:01.192Z,1
2022-08-17T13:26:00.631Z,1
2022-08-17T13:27:00.296Z,1
2022-08-17T13:27:59.935Z,1
2022-08-17T13:28:59.610Z,1
2022-08-17T13:30:01.316Z,1
2022-08-17T13:31:01.103Z,1
2022-08-17T13:32:04.095Z,1
2022-08-17T13:33:04.717Z,1
2022-08-17T13:34:01.419Z,1
2022-08-17T13:35:14.123Z,1
2022-08-17T13:36:01.244Z,1
2022-08-17T13:37:01.072Z,1
2022-08-17T13:38:01.458Z,1
2022-08-17T13:39:01.181Z,1
2022-08-17T13:40:00.917Z,1
2022-08-17T13:41:00.704Z,1
2022-08-17T13:42:01.550Z,1
2022-08-17T13:43:01.544Z,1
2022-08-17T13:44:01.233Z,1
2022-08-17T13:45:00.934Z,1
2022-08-17T13:46:00.626Z,1
2022-08-17T13:47:00.270Z,1
2022-08-17T13:47:59.926Z,1
2022-08-17T13:48:59.599Z,1
2022-08-17T13:50:01.231Z,1
2022-08-17T13:51:00.941Z,1
2022-08-17T13:52:00.616Z,1
2022-08-17T13:53:00.653Z,1
2022-08-17T13:54:00.322Z,1
2022-08-17T13:55:00.415Z,1
2022-08-17T13:56:00.061Z,1
2022-08-17T13:56:59.712Z,1
2022-08-17T13:58:05.071Z,1
2022-08-17T13:59:01.343Z,1
2022-08-17T14:00:01.025Z,1